Flight - 06.11.2018

Mission briefing materials / Materiały związane z odprawami przed lotem
Post Reply
Wielblad
Porucznik
Posts: 103
Joined: Tue Jun 26, 2012 9:52 pm
Location: Poland

Flight - 06.11.2018

Post by Wielblad » Mon Nov 05, 2018 7:49 pm

2018-11-06

Briefing: 20:00
Flight: 20:30

Mission start: 00:20

Weather:
CSG no.3 302330Z 25006KT 6000 FEW045 29/18 A3014
OMAM 302330Z VRB04KT CAVOK 30/19 A3013


Tasks:
DODGE1 (AV-8B): Guided missiles exercise.
UZI1/2 (F-18C): CCRP bombing exercise

T/O Time:
DODGE1: 00:35
UZI1: 00:35
UZI2: 00:36


---DODGE1---
1. Gru
2. Ptako

---UZI1---
1. hades
2. Wielblad

---UZI2---
1. Ciupek (spóźnię się i dołączę)
2. Sowin

Stores:
---DODGE1----
Weapons: AIM-9M*2, AGM-65G*2
Additional stores: AERO2D(FT)*2, AN/AAQ-28
Fuel: 11760 LBS
T/O Weight: 29500 LBS

---UZI1----
Weapons: AIM-9M*2, AIM-120B*2, Mk-84*2
Additional stores: FPU-8A(FT)*2
Fuel: 15290 LBS
T/O Weight: 46990 LBS

---UZI2----
Weapons: AIM-9M*2, AIM-120B*2, Mk-84*2
Additional stores: FPU-8A(FT)*2
Fuel: 15290 LBS
T/O Weight: 46990 LBS

Communications:
---DODGE1---
Comm1: 127.25 MHz (LHA-1) -> 264 MHz (MAGIC)
Comm2: 123.3 MHz

---UZI1---
Comm1: 125.25 MHz (CVN-74) -> 264 MHz (MAGIC)
Comm2: 262 MHz

---UZI2---
Comm1: 125.25 MHz (CVN-74) -> 264 MHz (MAGIC)
Comm2: 263 MHz

Routes:

DODGE1:
Image
Image

--

UZI1/2:
Image
Image
Image


Carriers:
CVN-74: TAC 74X [STA] / ICLS ch. 17
LHA-1: TAC 1X [TRA]


Threats:
None

Support flights
TEXACO (KC-130) - FREQ: 251 MHz / TCN: 32Y / ALT: 20.0
ARCO (KC-130) - FREQ: 253 MHz / TCN: 35Y / ALT: 20.0
SHELL (KC-130) – FREQ: 255 / TCN: 37Y / ALT: 20.0
MAGIC (E-3A) – FREQ: 264 MHz / ALT: 30.0

Post Reply

Who is online

Users browsing this forum: No registered users and 0 guests